Time;durP1;ratioP1;P1;durP2;ratioP2;P2;SDS_P1;SDS_P2;PMS_P1;PMS_P2;Temp;Humidity;BMP_temperature;BMP_pressure;BME280_temperature;BME280_humidity;BME280_pressure;Samples;Min_cycle;Max_cycle;Signal;HPM_P1;HPM_P2
2022/06/14 00:02:58;;;;;;;9.50;4.93;;;;;12.30;96874.00;;;;8475106;27;20228;-68
2022/06/14 00:07:03;;;;;;;9.32;5.22;;;;;12.30;96873.00;;;;8472670;27;20194;-70
2022/06/14 00:11:09;;;;;;;12.50;5.33;;;;;12.50;96875.00;;;;8472408;27;20769;-68
2022/06/14 00:15:12;;;;;;;7.43;4.30;;;;;12.90;96884.00;;;;8485707;27;20622;-68
2022/06/14 00:19:15;;;;;;;10.98;4.18;;;;;13.20;96877.00;;;;8485199;27;20285;-68
2022/06/14 00:23:22;;;;;;;5.65;3.65;;;;;13.60;96880.00;;;;8481031;27;20837;-68
2022/06/14 00:27:25;;;;;;;8.05;4.15;;;;;13.90;96886.00;;;;8481427;27;20262;-70
2022/06/14 00:31:29;;;;;;;7.00;4.05;;;;;14.10;96892.00;;;;8479406;27;20200;-67
2022/06/14 00:35:34;;;;;;;9.65;4.03;;;;;14.20;96891.00;;;;8485854;27;20305;-69
2022/06/14 00:39:38;;;;;;;6.10;3.60;;;;;14.40;96891.00;;;;8489478;27;20626;-71
2022/06/14 00:43:41;;;;;;;6.90;4.60;;;;;14.50;96894.00;;;;8491590;27;20797;-69
2022/06/14 00:47:48;;;;;;;12.20;3.88;;;;;14.30;96907.00;;;;8483979;27;20198;-71
2022/06/14 00:51:54;;;;;;;6.03;3.97;;;;;13.90;96896.00;;;;8480317;27;20194;-69
2022/06/14 00:56:03;;;;;;;8.07;4.10;;;;;13.80;96901.00;;;;8485608;27;20786;-71
2022/06/14 01:00:09;;;;;;;7.53;3.65;;;;;13.80;96901.00;;;;8485200;27;20212;-70
2022/06/14 01:04:16;;;;;;;6.43;4.18;;;;;13.70;96903.00;;;;8483248;27;20316;-69
2022/06/14 01:08:19;;;;;;;9.20;4.50;;;;;13.60;96909.00;;;;8476708;27;20770;-69
2022/06/14 01:12:27;;;;;;;9.38;4.57;;;;;13.60;96901.00;;;;8487191;27;20650;-68
2022/06/14 01:16:32;;;;;;;9.25;4.05;;;;;13.50;96891.00;;;;8483831;27;20232;-70
2022/06/14 01:20:36;;;;;;;9.68;4.80;;;;;13.60;96900.00;;;;8489764;27;20203;-69
2022/06/14 01:24:42;;;;;;;7.63;4.45;;;;;13.60;96899.00;;;;8484824;27;20229;-68
2022/06/14 01:28:49;;;;;;;7.25;4.35;;;;;13.50;96902.00;;;;8486944;27;20288;-68
2022/06/14 01:32:56;;;;;;;10.55;4.82;;;;;13.50;96892.00;;;;8492021;27;20293;-68
2022/06/14 01:37:00;;;;;;;5.38;4.47;;;;;13.50;96885.00;;;;8483026;27;20676;-70
2022/06/14 01:41:10;;;;;;;7.65;4.47;;;;;13.50;96889.00;;;;8486453;27;20194;-69
2022/06/14 01:45:27;;;;;;;6.63;4.40;;;;;13.70;96886.00;;;;8480698;27;20204;-71
2022/06/14 01:54:14;;;;;;;7.70;4.10;;;;;13.90;96889.00;;;;8484567;27;20214;-68
2022/06/14 01:58:27;;;;;;;11.65;4.55;;;;;13.90;96893.00;;;;8482152;27;20307;-69
2022/06/14 02:02:36;;;;;;;7.85;4.60;;;;;13.70;96885.00;;;;8479311;27;20312;-69
2022/06/14 02:06:45;;;;;;;11.27;4.18;;;;;13.50;96888.00;;;;8472659;27;20648;-71
2022/06/14 02:10:57;;;;;;;12.25;4.90;;;;;13.20;96876.00;;;;8472306;27;20287;-69
2022/06/14 02:15:10;;;;;;;8.38;4.85;;;;;13.00;96884.00;;;;8485552;27;20211;-73
2022/06/14 02:19:18;;;;;;;8.40;4.18;;;;;12.80;96878.00;;;;8483273;27;20268;-72
2022/06/14 02:23:22;;;;;;;8.00;5.03;;;;;12.60;96876.00;;;;8485647;27;20618;-70
2022/06/14 02:27:30;;;;;;;8.93;4.97;;;;;12.50;96881.00;;;;8485595;27;20195;-75
2022/06/14 02:31:39;;;;;;;9.80;4.93;;;;;12.50;96884.00;;;;8482927;27;20684;-70
2022/06/14 02:35:49;;;;;;;9.15;5.15;;;;;12.50;96888.00;;;;8472836;27;20275;-71
2022/06/14 02:39:56;;;;;;;10.18;5.03;;;;;12.40;96884.00;;;;8477733;27;20567;-68
2022/06/14 02:44:06;;;;;;;6.90;4.85;;;;;12.40;96880.00;;;;8478788;27;20281;-67
2022/06/14 02:48:15;;;;;;;7.80;5.30;;;;;12.40;96881.00;;;;8470926;27;20230;-73
2022/06/14 02:52:21;;;;;;;10.70;5.13;;;;;12.30;96886.00;;;;8484198;27;20310;-73
2022/06/14 02:56:30;;;;;;;9.30;4.93;;;;;12.30;96874.00;;;;8503310;27;20222;-73
2022/06/14 03:00:39;;;;;;;16.20;5.05;;;;;12.20;96873.00;;;;8477423;27;20222;-76
2022/06/14 03:04:49;;;;;;;12.65;5.45;;;;;12.10;96868.00;;;;8370612;22;20336;-71
2022/06/14 03:08:59;;;;;;;9.52;5.43;;;;;12.10;96872.00;;;;8342243;28;20276;-73
2022/06/14 03:13:10;;;;;;;8.43;5.13;;;;;12.10;96876.00;;;;8339276;28;20196;-73
2022/06/14 03:17:20;;;;;;;12.00;4.57;;;;;12.30;96872.00;;;;8346267;28;20660;-71
2022/06/14 03:21:35;;;;;;;11.77;4.72;;;;;12.40;96878.00;;;;8353964;28;20629;-76
2022/06/14 03:25:44;;;;;;;8.57;4.63;;;;;12.40;96873.00;;;;8347600;28;20212;-72
2022/06/14 03:29:54;;;;;;;13.32;4.65;;;;;12.20;96882.00;;;;8348709;28;20284;-70
2022/06/14 03:34:01;;;;;;;10.02;4.97;;;;;12.20;96877.00;;;;8351852;28;20642;-71
2022/06/14 03:38:12;;;;;;;17.00;4.97;;;;;12.20;96888.00;;;;8348676;28;20225;-72
2022/06/14 03:42:15;;;;;;;10.63;4.90;;;;;12.20;96881.00;;;;8353352;28;20296;-72
2022/06/14 03:46:29;;;;;;;8.15;4.95;;;;;12.20;96883.00;;;;8352399;28;20232;-71
2022/06/14 03:50:43;;;;;;;10.23;5.30;;;;;12.30;96880.00;;;;8343244;28;20204;-71
2022/06/14 03:54:54;;;;;;;7.30;4.65;;;;;12.40;96882.00;;;;8350440;28;20206;-70
2022/06/14 03:59:21;;;;;;;9.38;5.10;;;;;12.50;96876.00;;;;8351637;28;20244;-78
2022/06/14 04:03:49;;;;;;;12.57;5.20;;;;;12.60;96877.00;;;;8352009;28;20270;-75
2022/06/14 04:07:58;;;;;;;8.83;4.70;;;;;12.80;96876.00;;;;8344728;28;20208;-74
2022/06/14 04:12:13;;;;;;;12.43;5.50;;;;;13.20;96871.00;;;;8345388;28;20289;-70
2022/06/14 04:16:25;;;;;;;11.77;5.15;;;;;13.60;96881.00;;;;8344475;28;20234;-69
2022/06/14 04:20:37;;;;;;;8.60;4.70;;;;;13.60;96888.00;;;;8346406;28;20197;-68
2022/06/14 04:24:45;;;;;;;7.78;4.38;;;;;14.20;96887.00;;;;8345292;28;20536;-68
2022/06/14 04:28:57;;;;;;;9.25;4.47;;;;;14.60;96878.00;;;;8349392;28;20856;-70
2022/06/14 04:33:07;;;;;;;8.18;4.80;;;;;14.50;96877.00;;;;8352306;28;20207;-69
2022/06/14 04:37:15;;;;;;;10.32;4.50;;;;;14.80;96877.00;;;;8350723;28;20228;-68
2022/06/14 04:41:23;;;;;;;8.15;3.97;;;;;15.60;96875.00;;;;8346535;28;20229;-69
2022/06/14 04:45:36;;;;;;;6.55;3.78;;;;;16.30;96892.00;;;;8340486;28;20214;-69
2022/06/14 04:54:01;;;;;;;8.43;4.40;;;;;17.00;96895.00;;;;8345344;28;20294;-70
2022/06/14 04:58:10;;;;;;;9.63;3.97;;;;;17.00;96894.00;;;;8350891;28;20224;-70
2022/06/14 05:02:21;;;;;;;8.18;4.13;;;;;16.70;96898.00;;;;8357387;28;20324;-70
2022/06/14 05:06:30;;;;;;;6.82;3.70;;;;;16.90;96889.00;;;;8362767;28;20610;-69
2022/06/14 05:10:37;;;;;;;8.27;3.85;;;;;16.60;96887.00;;;;8356582;28;20203;-70
2022/06/14 05:14:45;;;;;;;4.50;3.28;;;;;16.90;96882.00;;;;8358912;28;20772;-68
2022/06/14 05:18:56;;;;;;;5.05;3.03;;;;;17.30;96888.00;;;;8353899;28;20349;-69
2022/06/14 05:23:05;;;;;;;5.07;2.80;;;;;17.60;96887.00;;;;8347012;28;20197;-68
2022/06/14 05:27:37;;;;;;;5.75;2.80;;;;;17.70;96898.00;;;;8357579;28;20205;-69
2022/06/14 05:31:47;;;;;;;3.35;2.60;;;;;17.80;96897.00;;;;8352223;28;20199;-68
2022/06/14 05:35:57;;;;;;;3.13;2.60;;;;;18.10;96898.00;;;;8350255;28;20238;-70
2022/06/14 05:40:06;;;;;;;3.55;2.30;;;;;18.40;96902.00;;;;8350635;28;20308;-69
2022/06/14 05:44:12;;;;;;;4.63;2.58;;;;;18.50;96898.00;;;;8354640;28;20677;-68
2022/06/14 05:48:22;;;;;;;5.05;2.47;;;;;18.80;96908.00;;;;8353485;28;20707;-69
2022/06/14 05:52:32;;;;;;;5.32;2.50;;;;;19.00;96906.00;;;;8349320;28;20902;-70
2022/06/14 05:56:42;;;;;;;3.97;2.60;;;;;19.30;96907.00;;;;8354464;28;20215;-69
2022/06/14 06:00:49;;;;;;;7.32;2.83;;;;;19.60;96906.00;;;;8350723;28;20223;-69
2022/06/14 06:04:58;;;;;;;7.63;2.55;;;;;19.90;96915.00;;;;8354518;28;20308;-68
2022/06/14 06:09:12;;;;;;;5.32;2.70;;;;;20.20;96915.00;;;;8356651;28;20240;-68
2022/06/14 06:13:21;;;;;;;4.00;2.35;;;;;20.60;96914.00;;;;8351613;28;20284;-67
2022/06/14 06:17:29;;;;;;;4.07;2.65;;;;;20.60;96917.00;;;;8352983;28;20312;-68
2022/06/14 06:21:38;;;;;;;3.17;2.40;;;;;20.40;96917.00;;;;8353940;28;20215;-70
2022/06/14 06:25:47;;;;;;;3.92;2.72;;;;;20.70;96921.00;;;;8353893;28;20204;-69
2022/06/14 06:29:54;;;;;;;5.60;2.55;;;;;21.10;96919.00;;;;8349542;28;20287;-69
2022/06/14 06:33:59;;;;;;;6.18;2.42;;;;;21.40;96916.00;;;;8351940;28;20283;-69
2022/06/14 06:38:10;;;;;;;5.53;2.90;;;;;21.60;96919.00;;;;8347246;28;20703;-70
2022/06/14 06:42:21;;;;;;;4.65;2.20;;;;;21.50;96922.00;;;;8352653;28;20265;-68
2022/06/14 06:46:28;;;;;;;5.20;2.72;;;;;21.60;96928.00;;;;8352596;28;20600;-70
2022/06/14 06:50:37;;;;;;;4.00;1.90;;;;;21.90;96925.00;;;;8353412;28;20232;-70
2022/06/14 06:54:48;;;;;;;4.15;2.35;;;;;22.10;96931.00;;;;8353271;28;20193;-69
2022/06/14 06:58:56;;;;;;;4.63;2.50;;;;;21.90;96927.00;;;;8351884;28;20224;-70
2022/06/14 07:03:05;;;;;;;7.85;2.55;;;;;21.70;96925.00;;;;8350706;28;20319;-69
2022/06/14 07:07:14;;;;;;;6.82;2.80;;;;;22.10;96930.00;;;;8358266;28;20720;-68
2022/06/14 07:11:24;;;;;;;5.65;2.22;;;;;22.50;96942.00;;;;8354157;28;21033;-68
2022/06/14 07:15:34;;;;;;;2.45;2.30;;;;;22.90;96942.00;;;;8349293;28;20216;-68
2022/06/14 07:19:43;;;;;;;7.15;2.10;;;;;23.30;96944.00;;;;8350528;28;20262;-70
2022/06/14 07:23:51;;;;;;;5.47;2.30;;;;;23.80;96941.00;;;;8338956;28;20215;-70
2022/06/14 07:28:03;;;;;;;6.03;2.60;;;;;24.00;96935.00;;;;8351608;28;20203;-68
2022/06/14 07:32:12;;;;;;;7.80;2.58;;;;;24.70;96946.00;;;;8346622;28;20207;-69
2022/06/14 07:36:31;;;;;;;3.08;2.03;;;;;25.20;96941.00;;;;8350548;28;20193;-70
2022/06/14 07:40:42;;;;;;;5.25;2.20;;;;;25.10;96943.00;;;;8349628;28;20229;-69
2022/06/14 07:44:51;;;;;;;4.15;2.60;;;;;25.20;96936.00;;;;8351205;28;20197;-71
2022/06/14 07:49:01;;;;;;;4.63;2.60;;;;;24.90;96929.00;;;;8348472;28;20197;-70
2022/06/14 07:53:11;;;;;;;4.60;2.30;;;;;25.60;96928.00;;;;8351029;28;20287;-68
2022/06/14 07:57:20;;;;;;;5.30;2.30;;;;;26.30;96930.00;;;;8349332;28;20247;-68
2022/06/14 08:01:26;;;;;;;2.70;2.15;;;;;26.60;96928.00;;;;8346589;28;20544;-69
2022/06/14 08:05:34;;;;;;;7.40;2.40;;;;;27.70;96934.00;;;;8343474;28;20296;-68
2022/06/14 08:09:41;;;;;;;4.10;2.40;;;;;28.60;96932.00;;;;8348767;28;20216;-69
2022/06/14 08:13:50;;;;;;;3.63;2.33;;;;;28.30;96935.00;;;;8348178;28;20211;-69
2022/06/14 08:17:58;;;;;;;3.95;2.50;;;;;28.60;96938.00;;;;8343918;28;20343;-69
2022/06/14 08:22:06;;;;;;;5.05;2.40;;;;;28.90;96935.00;;;;8350825;28;21784;-70
2022/06/14 08:26:15;;;;;;;4.53;2.53;;;;;28.30;96930.00;;;;8348150;28;20292;-69
2022/06/14 08:30:23;;;;;;;3.72;2.20;;;;;28.20;96933.00;;;;8346899;28;20284;-69
2022/06/14 08:34:32;;;;;;;5.55;2.67;;;;;29.10;96924.00;;;;8349253;28;20235;-68
2022/06/14 08:38:41;;;;;;;7.05;2.47;;;;;30.00;96927.00;;;;8357049;28;20221;-69
2022/06/14 08:42:49;;;;;;;4.45;2.50;;;;;30.70;96920.00;;;;8354126;28;20683;-69
2022/06/14 08:47:05;;;;;;;3.92;2.60;;;;;31.00;96926.00;;;;8351763;28;20203;-70
2022/06/14 08:51:19;;;;;;;4.22;2.60;;;;;31.10;96922.00;;;;8353309;28;20308;-69
2022/06/14 08:56:06;;;;;;;4.53;2.78;;;;;31.20;96928.00;;;;8356248;28;20571;-68
2022/06/14 09:00:36;;;;;;;5.38;2.50;;;;;30.70;96927.00;;;;8354029;28;20316;-70
2022/06/14 09:05:19;;;;;;;5.70;2.67;;;;;30.70;96925.00;;;;8352812;28;20295;-70
2022/06/14 09:10:10;;;;;;;8.85;2.58;;;;;31.50;96918.00;;;;8352830;28;20203;-70
2022/06/14 09:14:51;;;;;;;6.50;2.30;;;;;31.00;96918.00;;;;8337075;28;20238;-71
2022/06/14 09:19:05;;;;;;;6.63;2.80;;;;;31.20;96918.00;;;;8345018;28;20368;-68
2022/06/14 09:23:18;;;;;;;4.55;2.60;;;;;31.80;96907.00;;;;8353448;28;20287;-69
2022/06/14 09:27:45;;;;;;;7.70;3.30;;;;;32.50;96908.00;;;;8350363;28;20280;-67
2022/06/14 09:32:23;;;;;;;2.97;2.50;;;;;32.90;96907.00;;;;8348782;28;20292;-71
2022/06/14 09:36:51;;;;;;;5.93;2.70;;;;;31.90;96913.00;;;;8347007;28;20241;-71
2022/06/14 09:41:10;;;;;;;6.35;2.80;;;;;30.60;96915.00;;;;8352562;28;20236;-70
2022/06/14 09:45:33;;;;;;;7.35;2.67;;;;;30.80;96908.00;;;;8351301;28;20205;-70
2022/06/14 09:50:11;;;;;;;6.47;2.63;;;;;31.40;96919.00;;;;8352273;28;20225;-70
2022/06/14 09:54:34;;;;;;;7.53;2.83;;;;;31.90;96909.00;;;;8364841;28;20232;-69
2022/06/14 09:59:18;;;;;;;5.50;2.50;;;;;33.00;96905.00;;;;8381429;28;20319;-70
2022/06/14 10:04:07;;;;;;;5.90;2.70;;;;;33.00;96905.00;;;;8385279;28;20314;-67
2022/06/14 10:08:41;;;;;;;5.32;2.80;;;;;31.90;96905.00;;;;8384090;28;20267;-69
2022/06/14 10:13:29;;;;;;;8.05;2.70;;;;;31.90;96900.00;;;;8384860;28;20211;-69
2022/06/14 10:18:01;;;;;;;5.63;2.42;;;;;32.60;96899.00;;;;8382073;28;20409;-70
2022/06/14 10:22:18;;;;;;;8.98;2.50;;;;;32.50;96902.00;;;;8381911;28;20600;-69
2022/06/14 10:31:07;;;;;;;4.22;2.28;;;;;30.60;96907.00;;;;8380507;28;20204;-70
2022/06/14 10:35:18;;;;;;;6.43;2.65;;;;;29.10;96897.00;;;;8381727;28;20592;-68
2022/06/14 10:39:55;;;;;;;8.38;2.92;;;;;29.40;96891.00;;;;8382464;28;20224;-69
2022/06/14 10:44:14;;;;;;;6.20;2.60;;;;;29.80;96889.00;;;;8347681;28;20519;-69
2022/06/14 10:48:35;;;;;;;6.13;2.70;;;;;30.40;96891.00;;;;8381508;28;20277;-68
2022/06/14 10:52:48;;;;;;;5.20;2.45;;;;;30.90;96891.00;;;;8377606;28;20212;-69
2022/06/14 10:57:03;;;;;;;3.88;2.53;;;;;31.40;96882.00;;;;8382544;28;20716;-69
2022/06/14 11:01:22;;;;;;;5.00;2.35;;;;;32.00;96880.00;;;;8379967;28;21029;-68
2022/06/14 11:05:32;;;;;;;9.90;2.47;;;;;32.50;96887.00;;;;8383962;28;20248;-70
2022/06/14 11:09:47;;;;;;;5.50;2.90;;;;;32.60;96888.00;;;;8384728;28;20283;-70
2022/06/14 11:14:03;;;;;;;4.80;2.92;;;;;32.10;96877.00;;;;8381993;28;20283;-71
2022/06/14 11:18:34;;;;;;;6.10;2.70;;;;;31.50;96873.00;;;;8378631;28;20283;-70
2022/06/14 11:22:41;;;;;;;7.03;2.90;;;;;31.90;96872.00;;;;8378738;28;20292;-72
2022/06/14 11:26:56;;;;;;;8.50;2.70;;;;;32.50;96871.00;;;;8380210;28;20707;-70
2022/06/14 11:31:07;;;;;;;8.32;2.78;;;;;32.30;96869.00;;;;8377504;28;20196;-71
2022/06/14 11:35:32;;;;;;;4.25;2.70;;;;;32.70;96853.00;;;;8381553;28;20645;-71
2022/06/14 11:39:41;;;;;;;3.30;2.47;;;;;32.10;96860.00;;;;8385025;28;20642;-70
2022/06/14 11:43:56;;;;;;;4.20;2.47;;;;;31.70;96851.00;;;;8384079;28;20291;-71
2022/06/14 11:48:08;;;;;;;5.35;2.50;;;;;31.80;96853.00;;;;8383973;28;20249;-70
2022/06/14 11:52:40;;;;;;;8.15;2.70;;;;;32.30;96855.00;;;;8375069;28;20189;-70
2022/06/14 11:56:53;;;;;;;4.32;2.28;;;;;33.10;96849.00;;;;8382822;28;20204;-69
2022/06/14 12:01:11;;;;;;;6.90;2.60;;;;;33.60;96855.00;;;;8381813;28;20307;-70
2022/06/14 12:05:25;;;;;;;3.55;2.25;;;;;34.20;96853.00;;;;8388341;28;20275;-70
2022/06/14 12:10:03;;;;;;;2.50;2.22;;;;;34.30;96848.00;;;;8385887;28;20722;-69
2022/06/14 12:14:37;;;;;;;7.65;2.65;;;;;34.90;96837.00;;;;8388009;28;20210;-70
2022/06/14 12:18:43;;;;;;;6.10;2.42;;;;;34.50;96832.00;;;;8382865;28;20207;-71
2022/06/14 12:23:13;;;;;;;5.82;2.65;;;;;34.20;96831.00;;;;8390465;28;20510;-71
2022/06/14 12:27:19;;;;;;;5.28;2.60;;;;;34.30;96831.00;;;;8391438;28;20286;-71
2022/06/14 12:31:33;;;;;;;7.63;2.83;;;;;33.90;96830.00;;;;8373627;28;20204;-72
2022/06/14 12:35:54;;;;;;;7.47;2.30;;;;;33.10;96829.00;;;;8388226;28;20222;-71
2022/06/14 12:40:02;;;;;;;2.38;2.20;;;;;33.70;96822.00;;;;8388160;28;20220;-70
2022/06/14 12:44:30;;;;;;;10.40;2.88;;;;;34.00;96829.00;;;;8388368;28;20680;-71
2022/06/14 12:48:40;;;;;;;3.72;2.17;;;;;34.00;96820.00;;;;8383729;28;20192;-70
2022/06/14 12:52:48;;;;;;;4.50;2.80;;;;;33.60;96815.00;;;;8390228;28;20904;-69
2022/06/14 12:56:56;;;;;;;7.45;2.80;;;;;33.10;96820.00;;;;8385142;28;20295;-70
2022/06/14 13:01:10;;;;;;;4.38;2.20;;;;;32.80;96809.00;;;;8390472;28;20755;-70
2022/06/14 13:05:19;;;;;;;6.00;2.65;;;;;32.60;96802.00;;;;8386412;28;20227;-69
2022/06/14 13:09:31;;;;;;;4.28;2.17;;;;;32.80;96798.00;;;;8386744;28;22282;-69
2022/06/14 13:13:47;;;;;;;8.73;2.80;;;;;33.50;96803.00;;;;8382280;28;20274;-69
2022/06/14 13:18:06;;;;;;;4.25;2.45;;;;;33.80;96804.00;;;;8381852;28;20647;-70
2022/06/14 13:22:20;;;;;;;3.70;2.40;;;;;33.80;96797.00;;;;8376726;28;20721;-69
2022/06/14 13:26:36;;;;;;;3.97;2.40;;;;;33.40;96790.00;;;;8383412;28;20806;-70
2022/06/14 13:30:45;;;;;;;6.72;2.10;;;;;33.40;96785.00;;;;8376526;28;20233;-69
2022/06/14 13:34:59;;;;;;;5.55;2.20;;;;;34.10;96783.00;;;;8384662;28;20232;-69
2022/06/14 13:39:11;;;;;;;4.38;2.20;;;;;34.50;96784.00;;;;8383792;28;20222;-70
2022/06/14 13:43:24;;;;;;;3.97;2.40;;;;;34.80;96787.00;;;;8386747;28;20235;-71
2022/06/14 13:47:33;;;;;;;5.18;2.40;;;;;34.60;96783.00;;;;8384743;28;20196;-72
2022/06/14 13:51:44;;;;;;;4.22;2.30;;;;;35.00;96777.00;;;;8387932;28;20235;-72
2022/06/14 13:55:51;;;;;;;3.60;2.35;;;;;35.60;96771.00;;;;8388717;28;20858;-72
2022/06/14 13:59:59;;;;;;;4.05;2.30;;;;;36.10;96766.00;;;;8388510;28;20312;-72
2022/06/14 14:04:08;;;;;;;4.10;2.28;;;;;36.60;96767.00;;;;8382601;28;20319;-71
2022/06/14 14:08:16;;;;;;;4.10;2.40;;;;;37.00;96762.00;;;;8392164;28;20233;-71
2022/06/14 14:12:24;;;;;;;4.43;2.45;;;;;37.00;96769.00;;;;8388007;28;20287;-70
2022/06/14 14:16:35;;;;;;;4.22;2.05;;;;;36.70;96762.00;;;;8377803;28;20211;-72
2022/06/14 14:20:49;;;;;;;2.40;2.17;;;;;36.70;96766.00;;;;8387392;28;20239;-70
2022/06/14 14:25:00;;;;;;;3.88;2.10;;;;;37.10;96754.00;;;;8388251;28;20624;-71
2022/06/14 14:29:10;;;;;;;2.88;2.35;;;;;37.40;96749.00;;;;8383428;28;20192;-71
2022/06/14 14:33:19;;;;;;;8.35;2.33;;;;;37.10;96745.00;;;;8380929;28;20196;-71
2022/06/14 14:37:28;;;;;;;3.65;2.30;;;;;36.80;96733.00;;;;8374972;28;20239;-70
2022/06/14 14:41:41;;;;;;;4.70;2.53;;;;;36.60;96733.00;;;;8383858;28;20290;-71
2022/06/14 14:45:49;;;;;;;3.78;2.22;;;;;35.20;96730.00;;;;8385734;28;20227;-71
2022/06/14 14:50:01;;;;;;;4.07;2.20;;;;;34.70;96726.00;;;;8381117;28;20743;-71
2022/06/14 14:54:12;;;;;;;2.75;2.00;;;;;35.30;96734.00;;;;8376270;28;20307;-69
2022/06/14 14:58:23;;;;;;;3.97;2.22;;;;;35.40;96724.00;;;;8380866;28;20196;-71
2022/06/14 15:07:05;;;;;;;2.30;2.10;;;;;34.80;96712.00;;;;8392115;28;20211;-70
2022/06/14 15:11:23;;;;;;;4.65;2.22;;;;;34.80;96714.00;;;;8384231;28;20222;-69
2022/06/14 15:15:33;;;;;;;4.97;2.38;;;;;35.00;96712.00;;;;8380636;28;20288;-70
2022/06/14 15:19:57;;;;;;;3.22;2.53;;;;;34.60;96703.00;;;;8384381;28;20199;-69
2022/06/14 15:24:03;;;;;;;4.65;2.20;;;;;34.70;96698.00;;;;8387015;28;20608;-70
2022/06/14 15:28:18;;;;;;;2.95;2.03;;;;;35.10;96692.00;;;;8384046;28;20200;-69
2022/06/14 15:32:28;;;;;;;2.42;2.22;;;;;35.50;96693.00;;;;8386939;28;20204;-70
2022/06/14 15:36:33;;;;;;;3.20;2.10;;;;;35.80;96689.00;;;;8380027;28;20868;-69
2022/06/14 15:40:37;;;;;;;4.70;2.40;;;;;36.10;96682.00;;;;8385741;28;20235;-70
2022/06/14 15:44:46;;;;;;;6.10;2.90;;;;;36.20;96693.00;;;;8385390;28;20204;-70
2022/06/14 15:49:01;;;;;;;5.20;2.38;;;;;36.20;96676.00;;;;8386013;28;20232;-69
2022/06/14 15:53:06;;;;;;;4.45;2.42;;;;;36.10;96681.00;;;;8386305;28;20859;-68
2022/06/14 15:57:21;;;;;;;3.22;2.35;;;;;36.20;96677.00;;;;8379999;28;20192;-68
2022/06/14 16:01:26;;;;;;;5.70;2.95;;;;;35.70;96667.00;;;;8376170;28;20319;-67
2022/06/14 16:05:34;;;;;;;4.68;2.22;;;;;35.40;96662.00;;;;8387512;28;20703;-69
2022/06/14 16:09:41;;;;;;;2.80;2.22;;;;;35.10;96663.00;;;;8381519;28;20218;-69
2022/06/14 16:13:48;;;;;;;6.22;2.15;;;;;35.20;96663.00;;;;8381265;28;20200;-69
2022/06/14 16:17:52;;;;;;;2.47;2.00;;;;;35.50;96672.00;;;;8384917;28;20246;-70
2022/06/14 16:22:04;;;;;;;6.57;2.17;;;;;35.70;96670.00;;;;8386317;28;20255;-69
2022/06/14 16:26:16;;;;;;;5.60;2.60;;;;;35.70;96667.00;;;;8385235;28;20201;-69
2022/06/14 16:30:27;;;;;;;4.82;2.10;;;;;35.80;96664.00;;;;8383554;28;20249;-68
2022/06/14 16:34:40;;;;;;;4.72;2.28;;;;;36.10;96669.00;;;;8381592;28;20197;-69
2022/06/14 16:38:49;;;;;;;7.93;2.15;;;;;36.20;96665.00;;;;8379341;28;20239;-68
2022/06/14 16:43:00;;;;;;;3.47;2.00;;;;;36.10;96664.00;;;;8375034;28;20311;-69
2022/06/14 16:47:11;;;;;;;2.80;2.10;;;;;36.00;96660.00;;;;8383830;28;20602;-68
2022/06/14 16:51:20;;;;;;;3.80;2.50;;;;;36.00;96656.00;;;;8374808;28;20193;-69
2022/06/14 16:55:34;;;;;;;3.20;2.13;;;;;35.90;96661.00;;;;8378841;28;20204;-69
2022/06/14 16:59:43;;;;;;;9.02;2.15;;;;;36.10;96647.00;;;;8386440;28;20199;-70
2022/06/14 17:03:54;;;;;;;3.80;2.20;;;;;35.80;96652.00;;;;8374739;28;20332;-69
2022/06/14 17:08:05;;;;;;;4.85;2.50;;;;;35.60;96642.00;;;;8354975;28;20201;-69
2022/06/14 17:12:15;;;;;;;2.15;1.98;;;;;35.60;96649.00;;;;8355784;28;20594;-69
2022/06/14 17:16:28;;;;;;;3.67;2.25;;;;;35.70;96646.00;;;;8343643;28;20670;-69
2022/06/14 17:20:40;;;;;;;4.22;2.70;;;;;36.00;96653.00;;;;8343762;28;20588;-68
2022/06/14 17:24:53;;;;;;;2.17;1.85;;;;;36.30;96644.00;;;;8353492;28;20203;-68
2022/06/14 17:33:28;;;;;;;3.42;2.15;;;;;36.80;96641.00;;;;8352087;28;20367;-69
2022/06/14 17:37:37;;;;;;;5.13;2.30;;;;;36.90;96642.00;;;;8349526;28;20276;-68
2022/06/14 17:41:46;;;;;;;2.05;1.95;;;;;36.70;96642.00;;;;8356609;28;20225;-69
2022/06/14 17:45:56;;;;;;;4.88;2.20;;;;;36.60;96638.00;;;;8351363;28;20726;-68
2022/06/14 17:50:06;;;;;;;3.03;1.98;;;;;36.50;96645.00;;;;8353000;28;20213;-67
2022/06/14 17:54:19;;;;;;;3.28;2.10;;;;;36.00;96645.00;;;;8352478;28;20574;-68
2022/06/14 17:58:30;;;;;;;4.65;2.10;;;;;34.70;96640.00;;;;8356591;28;20196;-67
2022/06/14 18:02:44;;;;;;;4.10;2.13;;;;;33.50;96647.00;;;;8360009;28;20762;-68
2022/06/14 18:06:54;;;;;;;3.53;2.10;;;;;32.20;96649.00;;;;8382636;28;20227;-68
2022/06/14 18:11:00;;;;;;;2.70;1.92;;;;;30.90;96646.00;;;;8383130;28;20193;-69
2022/06/14 18:15:04;;;;;;;4.63;2.08;;;;;30.00;96647.00;;;;8383633;28;20250;-67
2022/06/14 18:23:45;;;;;;;4.10;2.50;;;;;28.40;96643.00;;;;8387657;28;20233;-67
2022/06/14 18:27:51;;;;;;;2.85;2.45;;;;;27.70;96646.00;;;;8385197;28;20247;-68
2022/06/14 18:32:15;;;;;;;4.53;2.67;;;;;26.90;96647.00;;;;8388392;28;20199;-67
2022/06/14 18:36:20;;;;;;;4.93;2.63;;;;;26.10;96645.00;;;;8380632;28;20203;-68
2022/06/14 18:40:32;;;;;;;4.68;2.40;;;;;25.30;96648.00;;;;8386570;28;20200;-68
2022/06/14 18:44:36;;;;;;;4.07;2.38;;;;;24.40;96637.00;;;;8379591;28;20303;-68
2022/06/14 18:48:47;;;;;;;4.93;2.80;;;;;23.60;96637.00;;;;8384110;28;20204;-69
2022/06/14 18:53:26;;;;;;;5.18;2.65;;;;;22.90;96636.00;;;;8384489;28;20223;-68
2022/06/14 18:57:36;;;;;;;6.90;3.13;;;;;22.30;96637.00;;;;8373871;28;20865;-69
2022/06/14 19:01:40;;;;;;;6.90;3.08;;;;;21.90;96645.00;;;;8383007;28;20222;-67
2022/06/14 19:05:54;;;;;;;5.15;2.70;;;;;21.50;96634.00;;;;8383818;28;20310;-68
2022/06/14 19:10:15;;;;;;;8.85;3.42;;;;;21.00;96646.00;;;;8387168;28;20232;-68
2022/06/14 19:14:57;;;;;;;7.00;3.08;;;;;20.40;96643.00;;;;8381768;28;20215;-68
2022/06/14 19:19:32;;;;;;;4.45;2.70;;;;;19.90;96646.00;;;;8378610;28;20279;-68
2022/06/14 19:24:01;;;;;;;3.88;3.00;;;;;19.60;96648.00;;;;8346053;28;20309;-67
2022/06/14 19:28:14;;;;;;;3.33;3.03;;;;;19.30;96657.00;;;;8358657;28;20196;-68
2022/06/14 19:32:25;;;;;;;4.35;3.13;;;;;18.90;96649.00;;;;8377373;28;20631;-69
2022/06/14 19:36:32;;;;;;;5.15;3.53;;;;;18.60;96655.00;;;;8375521;28;20275;-69
2022/06/14 19:40:39;;;;;;;5.03;3.03;;;;;18.40;96648.00;;;;8379857;28;20588;-66
2022/06/14 19:44:48;;;;;;;7.85;3.50;;;;;18.30;96650.00;;;;8370280;28;20236;-70
2022/06/14 19:53:19;;;;;;;4.82;3.55;;;;;17.80;96634.00;;;;8378843;28;20256;-69
2022/06/14 19:57:24;;;;;;;7.47;3.80;;;;;17.70;96647.00;;;;8374554;28;20236;-70
2022/06/14 20:01:34;;;;;;;5.88;4.03;;;;;17.40;96647.00;;;;8376928;28;20200;-70
2022/06/14 20:05:43;;;;;;;6.47;3.95;;;;;17.20;96655.00;;;;8376743;28;20626;-70
2022/06/14 20:09:58;;;;;;;6.85;3.85;;;;;17.00;96647.00;;;;8377629;28;20196;-69
2022/06/14 20:14:09;;;;;;;8.35;4.68;;;;;16.90;96644.00;;;;8377069;28;20283;-69
2022/06/14 20:18:24;;;;;;;7.68;4.53;;;;;16.80;96647.00;;;;8379778;28;20197;-70
2022/06/14 20:22:33;;;;;;;6.38;4.07;;;;;16.70;96648.00;;;;8385415;28;20232;-70
2022/06/14 20:26:36;;;;;;;4.65;4.10;;;;;16.60;96646.00;;;;8377742;28;20565;-69
2022/06/14 20:30:40;;;;;;;7.45;4.53;;;;;16.50;96649.00;;;;8381121;28;20199;-70
2022/06/14 20:34:53;;;;;;;5.25;4.10;;;;;16.30;96649.00;;;;8386955;28;20207;-69
2022/06/14 20:39:00;;;;;;;8.35;4.25;;;;;16.20;96649.00;;;;8387338;28;20614;-70
2022/06/14 20:43:08;;;;;;;7.43;4.57;;;;;16.10;96642.00;;;;8387222;28;20311;-70
2022/06/14 20:47:16;;;;;;;8.10;4.43;;;;;16.00;96647.00;;;;8389917;28;20192;-69
2022/06/14 20:51:21;;;;;;;5.32;3.95;;;;;15.90;96645.00;;;;8386575;28;20986;-69
2022/06/14 20:55:37;;;;;;;6.93;4.22;;;;;15.70;96643.00;;;;8384946;28;20204;-70
2022/06/14 20:59:43;;;;;;;6.07;4.53;;;;;15.60;96649.00;;;;8385966;28;20298;-69
2022/06/14 21:03:48;;;;;;;6.32;4.63;;;;;15.50;96635.00;;;;8390766;28;20350;-69
2022/06/14 21:07:52;;;;;;;13.05;4.75;;;;;15.40;96650.00;;;;8390939;28;20287;-70
2022/06/14 21:12:00;;;;;;;9.02;4.50;;;;;15.30;96639.00;;;;8389016;28;20739;-70
2022/06/14 21:16:04;;;;;;;5.43;4.45;;;;;15.20;96639.00;;;;8389532;28;20210;-70
2022/06/14 21:20:10;;;;;;;8.75;4.63;;;;;15.10;96632.00;;;;8388632;28;20203;-70
2022/06/14 21:24:16;;;;;;;8.82;5.63;;;;;15.00;96634.00;;;;8391264;28;20361;-71
2022/06/14 21:28:22;;;;;;;8.63;5.07;;;;;14.90;96646.00;;;;8388343;28;20279;-70
2022/06/14 21:32:45;;;;;;;7.82;4.95;;;;;14.80;96650.00;;;;8388287;28;20649;-70